createdAt,value
2023-01-23T00:01:50.913Z,9.6
2023-01-23T00:07:13.221Z,10.7
2023-01-23T00:12:50.074Z,13.2
2023-01-23T00:18:29.363Z,10.7
2023-01-23T00:24:11.080Z,10.7
2023-01-23T00:29:41.023Z,10.7
2023-01-23T00:35:26.523Z,8.4
2023-01-23T00:40:39.414Z,9.6
2023-01-23T00:46:16.355Z,9.6
2023-01-23T00:52:07.005Z,10.7
2023-01-23T00:57:35.177Z,9.6
2023-01-23T01:02:53.435Z,14.4
2023-01-23T01:08:36.418Z,13.2
2023-01-23T01:14:28.046Z,9.6
2023-01-23T01:19:40.948Z,9.6
2023-01-23T01:25:21.155Z,8.4
2023-01-23T01:30:44.540Z,8.4
2023-01-23T01:36:29.222Z,7.2
2023-01-23T01:41:59.664Z,7.2
2023-01-23T01:47:41.103Z,9.6
2023-01-23T01:53:13.950Z,8.4
2023-01-23T01:58:52.495Z,10.7
2023-01-23T02:04:13.936Z,11.9
2023-01-23T02:09:47.821Z,9.6
2023-01-23T02:15:33.824Z,8.4
2023-01-23T02:20:59.971Z,5.9
2023-01-23T02:26:32.499Z,8.4
2023-01-23T02:32:21.512Z,7.2
2023-01-23T02:37:54.519Z,8.4
2023-01-23T02:43:13.056Z,9.6
2023-01-23T02:48:45.647Z,9.6
2023-01-23T02:54:30.911Z,8.4
2023-01-23T03:00:09.593Z,7.2
2023-01-23T03:05:37.426Z,9.6
2023-01-23T03:10:59.432Z,11.9
2023-01-23T03:16:27.915Z,13.2
2023-01-23T03:21:59.938Z,9.6
2023-01-23T03:27:59.832Z,10.7
2023-01-23T03:33:29.671Z,9.6
2023-01-23T03:38:55.756Z,9.6
2023-01-23T03:44:27.161Z,8.4
2023-01-23T03:50:02.324Z,8.4
2023-01-23T03:55:30.095Z,11.9
2023-01-23T04:01:08.710Z,10.7
2023-01-23T04:06:47.144Z,11.9
2023-01-23T04:12:21.902Z,18
2023-01-23T04:17:45.939Z,14.4
2023-01-23T04:23:17.551Z,16.8
2023-01-23T04:28:47.023Z,15.6
2023-01-23T04:34:39.343Z,14.4
2023-01-23T04:40:12.156Z,13.2
2023-01-23T04:45:45.950Z,13.2
2023-01-23T04:51:14.055Z,13.2
2023-01-23T04:57:00.602Z,10.7
2023-01-23T05:02:23.010Z,11.9
2023-01-23T05:07:55.994Z,11.9
2023-01-23T05:13:18.790Z,11.9
2023-01-23T05:19:15.317Z,9.6
2023-01-23T05:24:39.282Z,13.2
2023-01-23T05:30:14.446Z,13.2
2023-01-23T05:35:49.220Z,11.9
2023-01-23T05:41:04.808Z,14.4
2023-01-23T05:47:05.572Z,16.8
2023-01-23T06:09:04.321Z,13.2
2023-01-23T06:14:47.600Z,11.9
2023-01-23T06:20:03.511Z,15.6
2023-01-23T06:25:59.298Z,16.8
2023-01-23T06:31:37.596Z,15.6
2023-01-23T06:42:31.359Z,10.7
2023-01-23T06:48:19.010Z,13.2
2023-01-23T06:53:29.506Z,14.4
2023-01-23T06:59:07.686Z,15.6
2023-01-23T07:04:37.678Z,11.9
2023-01-23T07:10:14.537Z,13.2
2023-01-23T07:21:38.475Z,10.7
2023-01-23T07:27:13.009Z,8.4
2023-01-23T07:32:38.267Z,10.7
2023-01-23T07:38:16.428Z,10.7
2023-01-23T07:43:38.010Z,14.4
2023-01-23T07:49:13.902Z,15.6
2023-01-23T07:54:58.739Z,14.4
2023-01-23T08:00:16.804Z,13.2
2023-01-23T08:06:12.070Z,14.4
2023-01-23T08:11:46.164Z,15.6
2023-01-23T08:17:05.172Z,16.8
2023-01-23T08:22:48.556Z,13.2
2023-01-23T08:28:24.452Z,13.2
2023-01-23T08:33:39.157Z,16.8
2023-01-23T08:39:32.945Z,13.2
2023-01-23T08:45:08.759Z,15.6
2023-01-23T08:50:30.031Z,14.4
2023-01-23T08:56:08.116Z,18
2023-01-23T09:01:41.890Z,16.8
2023-01-23T09:07:03.655Z,16.8
2023-01-23T09:12:30.676Z,15.6
2023-01-23T09:18:05.490Z,19.2
2023-01-23T09:23:46.681Z,19.2
2023-01-23T09:29:33.747Z,18
2023-01-23T09:35:12.670Z,16.8
2023-01-23T09:40:46.153Z,15.6
2023-01-23T09:46:23.537Z,16.8
2023-01-23T09:51:48.349Z,15.6
2023-01-23T09:57:23.931Z,16.8
2023-01-23T10:03:00.565Z,19.2
2023-01-23T10:08:21.181Z,21.5
2023-01-23T10:14:03.764Z,19.2
2023-01-23T10:19:37.125Z,15.6
2023-01-23T10:25:20.340Z,18
2023-01-23T10:30:39.323Z,16.8
2023-01-23T10:36:10.194Z,18
2023-01-23T10:41:48.575Z,16.8
2023-01-23T10:47:38.778Z,16.8
2023-01-23T10:53:05.860Z,16.8
2023-01-23T10:58:24.848Z,18
2023-01-23T11:03:53.514Z,14.4
2023-01-23T11:09:40.726Z,20.4
2023-01-23T11:15:11.900Z,20.4
2023-01-23T11:21:02.855Z,22.8
2023-01-23T11:26:16.139Z,23.9
2023-01-23T11:31:55.424Z,21.5
2023-01-23T11:37:39.159Z,22.8
2023-01-23T11:42:54.691Z,21.5
2023-01-23T11:48:47.911Z,20.4
2023-01-23T11:54:09.244Z,19.2
2023-01-23T11:59:54.665Z,21.5
2023-01-23T12:05:22.928Z,21.5
2023-01-23T12:10:51.815Z,19.2
2023-01-23T12:16:32.771Z,22.8
2023-01-23T12:22:10.080Z,18
2023-01-23T12:27:34.887Z,16.8
2023-01-23T12:32:56.605Z,15.6
2023-01-23T12:38:35.820Z,16.8
2023-01-23T12:44:09.775Z,19.2
2023-01-23T12:49:38.936Z,23.9
2023-01-23T12:55:39.362Z,21.5
2023-01-23T13:00:52.100Z,22.8
2023-01-23T13:06:41.335Z,18
2023-01-23T13:12:16.553Z,16.8
2023-01-23T13:17:28.352Z,19.2
2023-01-23T13:23:21.885Z,19.2
2023-01-23T13:28:46.632Z,16.8
2023-01-23T13:34:15.774Z,18
2023-01-23T13:39:44.673Z,16.8
2023-01-23T13:45:20.891Z,16.8
2023-01-23T13:51:17.456Z,19.2
2023-01-23T13:56:34.072Z,16.8
2023-01-23T14:02:01.746Z,20.4
2023-01-23T14:07:58.798Z,20.4
2023-01-23T14:13:17.576Z,20.4
2023-01-23T14:18:47.370Z,18
2023-01-23T14:24:34.459Z,22.8
2023-01-23T14:30:11.555Z,18
2023-01-23T14:35:36.933Z,18
2023-01-23T14:41:03.666Z,19.2
2023-01-23T14:46:44.502Z,18
2023-01-23T14:52:10.164Z,18
2023-01-23T14:58:06.706Z,15.6
2023-01-23T15:03:28.487Z,20.4
2023-01-23T15:09:01.684Z,19.2
2023-01-23T15:14:37.162Z,18
2023-01-23T15:19:58.521Z,19.2
2023-01-23T15:26:04.921Z,18
2023-01-23T15:31:30.982Z,18
2023-01-23T15:36:46.042Z,21.5
2023-01-23T15:42:41.012Z,19.2
2023-01-23T15:48:15.959Z,18
2023-01-23T15:53:22.748Z,18
2023-01-23T15:59:12.602Z,16.8
2023-01-23T16:04:48.460Z,19.2
2023-01-23T16:10:20.652Z,19.2
2023-01-23T16:16:01.753Z,16.8
2023-01-23T16:21:33.036Z,18
2023-01-23T16:26:53.529Z,16.8
2023-01-23T16:32:39.789Z,19.2
2023-01-23T16:38:06.847Z,18
2023-01-23T16:43:28.839Z,19.2
2023-01-23T16:49:19.142Z,18
2023-01-23T16:54:35.373Z,16.8
2023-01-23T17:00:07.556Z,18
2023-01-23T17:05:54.196Z,18
2023-01-23T17:11:28.192Z,14.4
2023-01-23T17:16:53.536Z,13.2
2023-01-23T17:22:35.180Z,10.7
2023-01-23T17:28:16.511Z,16.8
2023-01-23T17:33:57.335Z,16.8
2023-01-23T17:39:16.111Z,15.6
2023-01-23T17:44:39.504Z,14.4
2023-01-23T17:50:21.991Z,14.4
2023-01-23T17:56:04.528Z,15.6
2023-01-23T18:01:24.161Z,19.2
2023-01-23T18:07:12.583Z,18
2023-01-23T18:12:31.940Z,20.4
2023-01-23T18:18:30.039Z,18
2023-01-23T18:23:46.385Z,15.6
2023-01-23T18:29:24.363Z,14.4
2023-01-23T18:35:04.498Z,18
2023-01-23T18:40:22.595Z,16.8
2023-01-23T18:45:56.713Z,15.6
2023-01-23T18:51:27.544Z,18
2023-01-23T18:57:17.743Z,16.8
2023-01-23T19:02:41.432Z,18
2023-01-23T19:08:18.956Z,18
2023-01-23T19:14:15.006Z,16.8
2023-01-23T19:19:37.124Z,18
2023-01-23T19:25:12.499Z,15.6
2023-01-23T19:30:52.430Z,13.2
2023-01-23T19:36:23.701Z,14.4
2023-01-23T19:41:53.804Z,11.9
2023-01-23T19:47:11.785Z,10.7
2023-01-23T19:52:53.889Z,13.2
2023-01-23T19:58:37.323Z,16.8
2023-01-23T20:04:09.982Z,16.8
2023-01-23T20:09:46.893Z,16.8
2023-01-23T20:15:23.143Z,14.4
2023-01-23T20:20:41.079Z,15.6
2023-01-23T20:26:19.387Z,15.6
2023-01-23T20:31:45.327Z,15.6
2023-01-23T20:37:20.323Z,15.6
2023-01-23T20:42:59.018Z,18
2023-01-23T20:48:41.972Z,16.8
2023-01-23T20:54:28.487Z,18
2023-01-23T20:59:58.080Z,18
2023-01-23T21:05:26.998Z,18
2023-01-23T21:11:03.561Z,19.2
2023-01-23T21:16:42.974Z,18
2023-01-23T21:21:59.672Z,16.8
2023-01-23T21:27:33.503Z,18
2023-01-23T21:33:01.037Z,16.8
2023-01-23T21:38:45.142Z,19.2
2023-01-23T21:44:16.630Z,15.6
2023-01-23T21:50:00.170Z,16.8
2023-01-23T21:55:20.821Z,16.8
2023-01-23T22:01:04.978Z,16.8
2023-01-23T22:06:36.210Z,19.2
2023-01-23T22:12:12.249Z,16.8
2023-01-23T22:17:59.389Z,16.8
2023-01-23T22:23:28.964Z,16.8
2023-01-23T22:28:52.738Z,16.8
2023-01-23T22:34:41.116Z,11.9
2023-01-23T22:40:09.158Z,13.2
2023-01-23T22:45:28.448Z,15.6
2023-01-23T22:50:58.012Z,14.4
2023-01-23T22:56:49.967Z,13.2
2023-01-23T23:02:05.184Z,11.9
2023-01-23T23:07:49.610Z,14.4
2023-01-23T23:13:32.766Z,9.6
2023-01-23T23:19:01.922Z,9.6
2023-01-23T23:24:43.592Z,10.7
2023-01-23T23:29:57.291Z,10.7
2023-01-23T23:35:31.574Z,9.6
2023-01-23T23:41:09.154Z,10.7
2023-01-23T23:46:41.328Z,11.9
2023-01-23T23:52:28.074Z,10.7
2023-01-23T23:57:58.598Z,10.7
